»·PEaware :: N286WF KSBP-CL46

N286WF :: KSBP-CL46

FLIGHT INFORMATION

Flight Status: Arrived
Operator: Privately registered:
United States
More flights under this callsign
Pilot: Frank W. (16848)
Aircraft: Unknown
(P28U)
More flights by this aircraft type
Origin: KSBP San Luis Co Regl
United States
Destination: CL46 Quail Lake Sky Park
Canada
More flights between these airports :: More routes between these airports
Route: FLW
File this flight plan on PilotEdge
Remarks:
Altitude:
(Current/Filed)
7,500ft
Speed:
(Current/Filed)
140kts
Departed: 27-Jan-19 01:55 PM
Arrived: 27-Jan-19 02:42 PM
Distance/Time
Traveled:
2027nm/0:47
Distance/Time
To Go:
Arrived

Flight Plot

Page will automatically refresh every two minutes.

Flight plan parsing failed; only flown route is shown


Map Options




Map Legend


Flown Route
Filed Route
Departure Airport
Arrival Airport
Navaid (VOR, NDB)
Fix

Horizontal Profiles

Position Reports

Time Latitude Longitude Heading Altitude Ground
Speed
27-Jan-19 13:41 35.236644 -120.636718 123 215ft 0kts
27-Jan-19 13:42 35.236644 -120.636718 123 215ft 0kts
27-Jan-19 13:43 35.236644 -120.636718 123 215ft 0kts
27-Jan-19 13:44 35.236644 -120.636718 123 215ft 0kts
27-Jan-19 13:45 35.236644 -120.636718 123 215ft 0kts
27-Jan-19 13:46 35.236283 -120.636312 166 215ft 8kts
27-Jan-19 13:47 35.235214 -120.635363 119 215ft 16kts
27-Jan-19 13:48 35.233201 -120.632001 288 215ft 0kts
27-Jan-19 13:49 35.233201 -120.632001 288 215ft 0kts
27-Jan-19 13:50 35.233201 -120.632001 288 215ft 0kts
27-Jan-19 13:51 35.233201 -120.632001 288 215ft 0kts
27-Jan-19 13:52 35.233133 -120.632392 215 215ft 0kts
27-Jan-19 13:53 35.233133 -120.632392 215 215ft 0kts
27-Jan-19 13:54 35.233453 -120.634208 305 215ft 52kts
27-Jan-19 13:55 35.244382 -120.659629 245 1369ft 101kts
27-Jan-19 13:56 35.223694 -120.650634 128 2914ft 108kts
27-Jan-19 13:57 35.205326 -120.622862 102 4546ft 105kts
27-Jan-19 13:58 35.209053 -120.588698 70 6093ft 106kts
27-Jan-19 13:59 35.216586 -120.554376 77 7587ft 111kts
27-Jan-19 14:00 35.211603 -120.504775 99 7502ft 162kts
27-Jan-19 14:01 35.201991 -120.451960 100 7508ft 157kts
27-Jan-19 14:02 35.192336 -120.399282 100 7483ft 159kts
27-Jan-19 14:03 35.184871 -120.358678 100 7466ft 159kts
27-Jan-19 14:04 35.175138 -120.305874 101 7541ft 157kts
27-Jan-19 14:05 35.165404 -120.253202 101 7555ft 161kts
27-Jan-19 14:06 35.155502 -120.199802 101 7555ft 161kts
27-Jan-19 14:07 35.145501 -120.146244 101 7552ft 161kts
27-Jan-19 14:08 35.135625 -120.092963 101 7552ft 160kts
27-Jan-19 14:09 35.125601 -120.039815 101 7549ft 160kts
27-Jan-19 14:10 35.115590 -119.986715 100 7546ft 159kts
27-Jan-19 14:11 35.105732 -119.934121 100 7543ft 159kts
27-Jan-19 14:12 35.096180 -119.883206 100 7539ft 141kts
27-Jan-19 14:13 35.085345 -119.839002 105 7539ft 133kts
27-Jan-19 14:14 35.073423 -119.796221 105 7545ft 131kts
27-Jan-19 14:15 35.061506 -119.753740 105 7550ft 129kts
27-Jan-19 14:16 35.049710 -119.711679 106 7557ft 130kts
27-Jan-19 14:17 35.037830 -119.669500 106 7564ft 129kts
27-Jan-19 14:18 35.025985 -119.627538 106 7578ft 131kts
27-Jan-19 14:19 35.014117 -119.585533 105 7592ft 131kts
27-Jan-19 14:20 35.002210 -119.543498 105 7596ft 131kts
27-Jan-19 14:21 34.990319 -119.501548 105 7601ft 130kts
27-Jan-19 14:22 34.978464 -119.459754 105 7599ft 130kts
27-Jan-19 14:23 34.966565 -119.417947 105 7599ft 130kts
27-Jan-19 14:24 34.954685 -119.376165 106 7604ft 130kts
27-Jan-19 14:25 34.942546 -119.334103 108 7565ft 134kts
27-Jan-19 14:26 34.930765 -119.292337 107 7616ft 130kts
27-Jan-19 14:27 34.918208 -119.250010 107 7570ft 132kts
27-Jan-19 14:28 34.906170 -119.207568 107 7545ft 132kts
27-Jan-19 14:29 34.894026 -119.165275 108 7573ft 128kts
27-Jan-19 14:30 34.882199 -119.124308 107 7619ft 130kts
27-Jan-19 14:31 34.870125 -119.082436 107 7615ft 131kts
27-Jan-19 14:32 34.858783 -119.042536 114 7794ft 126kts
27-Jan-19 14:33 34.842691 -119.004327 113 7823ft 130kts
27-Jan-19 14:34 34.829411 -118.963551 109 7661ft 127kts
27-Jan-19 14:35 34.817227 -118.924300 111 7504ft 115kts
27-Jan-19 14:36 34.804206 -118.885296 114 6984ft 132kts
27-Jan-19 14:37 34.791611 -118.847787 113 6202ft 115kts
27-Jan-19 14:39 34.777997 -118.803871 102 5163ft 138kts
27-Jan-19 14:40 34.772275 -118.763841 98 4139ft 115kts
27-Jan-19 14:41 34.767912 -118.733339 96 3373ft 50kts
27-Jan-19 14:42 34.767647 -118.730067 10 3373ft 0kts
27-Jan-19 14:43 34.767647 -118.730067 10 3373ft 0kts
27-Jan-19 14:44 35.878859 -78.791250 318 380ft 0kts
27-Jan-19 14:45 35.878859 -78.791251 318 380ft 0kts
27-Jan-19 14:46 35.878959 -78.790360 54 380ft 0kts
27-Jan-19 14:47 35.881253 -78.791629 229 380ft 17kts
27-Jan-19 14:48 35.875327 -78.798950 224 380ft 28kts
27-Jan-19 14:49 35.874921 -78.801389 39 380ft 2kts
27-Jan-19 14:50 35.891566 -78.781744 42 946ft 120kts
27-Jan-19 14:51 35.917756 -78.776534 359 1647ft 112kts
27-Jan-19 14:52 35.919043 -78.802646 258 1776ft 105kts
27-Jan-19 14:53 35.894497 -78.814075 140 1141ft 103kts
27-Jan-19 14:54 35.882121 -78.792492 40 382ft 66kts
27-Jan-19 14:55 35.885311 -78.788407 58 380ft 29kts
27-Jan-19 14:56 35.885311 -78.788407 58 380ft 29kts
27-Jan-19 14:56 35.885311 -78.788407 58 380ft 29kts

Navigation Log

Ident Type
Flight plan parsing failed, navigation log unavailable